createdAt,value
2022-09-12T00:01:21.210Z,5.60
2022-09-12T00:03:52.711Z,7.53
2022-09-12T00:06:34.109Z,5.30
2022-09-12T00:09:04.314Z,7.53
2022-09-12T00:11:31.407Z,10.97
2022-09-12T00:14:00.470Z,8.43
2022-09-12T00:16:29.560Z,6.77
2022-09-12T00:18:56.286Z,6.20
2022-09-12T00:21:23.578Z,5.50
2022-09-12T00:23:53.906Z,4.93
2022-09-12T00:26:23.659Z,10.67
2022-09-12T00:28:50.604Z,12.23
2022-09-12T00:31:24.213Z,10.57
2022-09-12T00:33:51.452Z,7.67
2022-09-12T00:36:21.428Z,8.93
2022-09-12T00:38:48.450Z,5.93
2022-09-12T00:41:28.783Z,9.17
2022-09-12T00:44:01.335Z,10.77
2022-09-12T00:46:40.538Z,4.57
2022-09-12T00:49:21.834Z,7.80
2022-09-12T00:52:06.462Z,6.63
2022-09-12T00:54:53.544Z,5.63
2022-09-12T00:57:25.344Z,5.87
2022-09-12T01:00:04.605Z,6.30
2022-09-12T01:02:31.334Z,9.43
2022-09-12T01:04:58.487Z,10.33
2022-09-12T01:07:25.171Z,7.70
2022-09-12T01:09:52.227Z,6.33
2022-09-12T01:12:29.546Z,9.50
2022-09-12T01:14:56.153Z,9.13
2022-09-12T01:17:29.655Z,8.07
2022-09-12T01:20:08.017Z,6.17
2022-09-12T01:23:15.471Z,9.10
2022-09-12T01:26:15.596Z,6.97
2022-09-12T01:28:56.419Z,6.47
2022-09-12T01:31:44.371Z,5.10
2022-09-12T01:34:28.309Z,5.27
2022-09-12T01:37:12.986Z,6.27
2022-09-12T01:40:02.236Z,7.03
2022-09-12T01:42:40.994Z,8.83
2022-09-12T01:45:20.547Z,6.83
2022-09-12T01:47:54.295Z,5.83
2022-09-12T01:50:38.103Z,4.70
2022-09-12T01:53:14.675Z,5.47
2022-09-12T01:55:51.414Z,6.83
2022-09-12T01:58:27.143Z,5.43
2022-09-12T02:01:09.327Z,7.47
2022-09-12T02:03:45.152Z,5.43
2022-09-12T02:06:21.024Z,6.30
2022-09-12T02:08:55.153Z,9.50
2022-09-12T02:11:22.253Z,5.53
2022-09-12T02:14:01.917Z,6.53
2022-09-12T02:16:34.628Z,8.97
2022-09-12T02:19:10.415Z,8.17
2022-09-12T02:21:42.296Z,5.27
2022-09-12T02:24:12.603Z,5.87
2022-09-12T02:26:51.038Z,11.63
2022-09-12T02:29:17.833Z,12.30
2022-09-12T02:31:50.009Z,11.60
2022-09-12T02:34:33.242Z,6.27
2022-09-12T02:37:05.997Z,7.07
2022-09-12T02:39:32.970Z,8.70
2022-09-12T02:42:01.943Z,6.97
2022-09-12T02:44:30.795Z,5.90
2022-09-12T02:47:04.899Z,5.53
2022-09-12T02:49:31.670Z,8.93
2022-09-12T02:52:00.066Z,6.17
2022-09-12T02:54:28.023Z,8.17
2022-09-12T02:56:54.703Z,8.60
2022-09-12T02:59:24.103Z,10.83
2022-09-12T03:02:15.550Z,7.23
2022-09-12T03:05:03.505Z,7.53
2022-09-12T03:07:39.966Z,9.70
2022-09-12T03:10:28.920Z,10.67
2022-09-12T03:13:20.573Z,7.33
2022-09-12T03:15:47.200Z,12.93
2022-09-12T03:18:14.650Z,15.80
2022-09-12T03:21:09.890Z,10.73
2022-09-12T03:23:36.819Z,8.63
2022-09-12T03:26:11.059Z,15.23
2022-09-12T03:28:39.616Z,10.67
2022-09-12T03:31:14.863Z,11.07
2022-09-12T03:33:41.907Z,10.17
2022-09-12T03:36:26.955Z,12.87
2022-09-12T03:38:53.691Z,10.40
2022-09-12T03:41:21.314Z,11.33
2022-09-12T03:43:48.513Z,12.83
2022-09-12T03:46:15.159Z,10.10
2022-09-12T03:48:41.993Z,11.37
2022-09-12T03:51:10.567Z,11.73
2022-09-12T03:53:37.329Z,16.10
2022-09-12T03:56:13.527Z,12.63
2022-09-12T03:58:40.715Z,14.53
2022-09-12T04:01:12.911Z,12.27
2022-09-12T04:03:48.358Z,15.97
2022-09-12T04:06:18.255Z,15.63
2022-09-12T04:08:51.581Z,13.13
2022-09-12T04:11:19.912Z,13.87
2022-09-12T04:13:47.626Z,14.60
2022-09-12T04:16:15.772Z,13.10
2022-09-12T04:18:42.698Z,10.97
2022-09-12T04:21:12.340Z,13.83
2022-09-12T04:23:39.222Z,17.63
2022-09-12T04:26:13.788Z,10.97
2022-09-12T04:28:41.395Z,14.27
2022-09-12T04:31:12.314Z,10.73
2022-09-12T04:33:39.519Z,11.27
2022-09-12T04:36:09.083Z,10.10
2022-09-12T04:38:36.866Z,13.93
2022-09-12T04:41:22.911Z,17.27
2022-09-12T04:43:54.700Z,11.13
2022-09-12T04:46:21.652Z,11.43
2022-09-12T04:48:52.281Z,14.13
2022-09-12T04:51:31.036Z,11.97
2022-09-12T04:54:06.555Z,18.03
2022-09-12T04:56:36.529Z,16.50
2022-09-12T04:59:03.375Z,21.57
2022-09-12T05:01:30.457Z,17.27
2022-09-12T05:03:58.928Z,14.10
2022-09-12T05:06:34.959Z,9.77
2022-09-12T05:09:06.606Z,10.50
2022-09-12T05:12:02.541Z,10.77
2022-09-12T05:14:25.524Z,10.33
2022-09-12T05:16:52.162Z,12.23
2022-09-12T05:19:18.814Z,11.27
2022-09-12T05:21:45.434Z,12.27
2022-09-12T05:24:12.202Z,12.87
2022-09-12T05:26:41.901Z,12.37
2022-09-12T05:29:08.503Z,17.60
2022-09-12T05:31:35.597Z,16.00
2022-09-12T05:34:06.098Z,11.83
2022-09-12T05:36:33.333Z,13.30
2022-09-12T05:39:00.567Z,10.73
2022-09-12T05:41:30.903Z,10.87
2022-09-12T05:43:59.986Z,13.23
2022-09-12T05:46:28.813Z,15.73
2022-09-12T05:48:56.779Z,12.67
2022-09-12T05:51:28.568Z,14.70
2022-09-12T05:54:00.097Z,13.73
2022-09-12T05:56:32.310Z,11.20
2022-09-12T05:59:04.792Z,12.10
2022-09-12T06:01:33.759Z,10.73
2022-09-12T06:04:03.556Z,17.50
2022-09-12T06:06:31.878Z,14.83
2022-09-12T06:09:04.208Z,13.13
2022-09-12T06:11:33.398Z,15.63
2022-09-12T06:14:03.612Z,9.57
2022-09-12T06:16:32.455Z,11.03
2022-09-12T06:19:04.786Z,9.63
2022-09-12T06:21:32.010Z,10.53
2022-09-12T06:23:59.010Z,8.77
2022-09-12T06:26:26.374Z,11.53
2022-09-12T06:28:54.893Z,9.20
2022-09-12T06:31:25.848Z,9.07
2022-09-12T06:33:56.833Z,9.00
2022-09-12T06:36:28.680Z,12.03
2022-09-12T06:38:59.454Z,8.53
2022-09-12T06:41:26.930Z,11.03
2022-09-12T06:43:57.115Z,10.43
2022-09-12T06:46:25.205Z,7.07
2022-09-12T06:48:52.178Z,7.73
2022-09-12T06:51:22.326Z,6.57
2022-09-12T06:53:50.359Z,10.43
2022-09-12T06:56:21.976Z,9.07
2022-09-12T06:58:50.558Z,5.33
2022-09-12T07:01:22.309Z,6.70
2022-09-12T07:03:55.918Z,9.90
2022-09-12T07:06:27.454Z,10.60
2022-09-12T07:08:54.022Z,9.97
2022-09-12T07:11:27.311Z,11.80
2022-09-12T07:13:56.378Z,9.30
2022-09-12T07:16:23.909Z,9.43
2022-09-12T07:18:55.475Z,6.17
2022-09-12T07:21:22.803Z,6.07
2022-09-12T07:23:53.271Z,5.73
2022-09-12T07:26:19.894Z,7.03
2022-09-12T07:28:51.578Z,7.80
2022-09-12T07:31:19.553Z,5.80
2022-09-12T07:33:48.221Z,5.70
2022-09-12T07:36:22.565Z,4.60
2022-09-12T07:38:57.241Z,4.90
2022-09-12T07:41:27.049Z,9.27
2022-09-12T07:43:58.280Z,4.87
2022-09-12T07:46:26.617Z,5.73
2022-09-12T07:48:54.970Z,4.43
2022-09-12T07:51:22.573Z,3.23
2022-09-12T07:53:49.353Z,8.97
2022-09-12T07:56:17.358Z,7.40
2022-09-12T07:58:46.557Z,3.80
2022-09-12T08:01:23.189Z,2.73
2022-09-12T08:03:55.841Z,4.00
2022-09-12T08:06:26.385Z,4.57
2022-09-12T08:08:55.103Z,4.33
2022-09-12T08:11:23.486Z,6.10
2022-09-12T08:13:55.367Z,3.87
2022-09-12T08:16:24.917Z,2.83
2022-09-12T08:18:51.776Z,3.75
2022-09-12T08:21:24.096Z,5.82
2022-09-12T08:23:56.495Z,2.30
2022-09-12T08:26:23.602Z,4.07
2022-09-12T08:28:50.802Z,5.05
2022-09-12T08:31:20.417Z,4.40
2022-09-12T08:33:47.249Z,4.13
2022-09-12T08:36:20.417Z,3.70
2022-09-12T08:38:49.127Z,3.65
2022-09-12T08:41:18.439Z,3.90
2022-09-12T08:44:09.793Z,5.93
2022-09-12T08:46:44.017Z,3.63
2022-09-12T08:49:15.037Z,3.05
2022-09-12T08:51:43.214Z,3.35
2022-09-12T08:54:29.259Z,5.33
2022-09-12T08:57:01.768Z,3.03
2022-09-12T08:59:39.774Z,2.70
2022-09-12T09:02:24.820Z,4.60
2022-09-12T09:05:22.637Z,2.15
2022-09-12T09:08:01.183Z,4.57
2022-09-12T09:10:48.967Z,4.40
2022-09-12T09:13:52.572Z,3.15
2022-09-12T09:16:32.405Z,4.05
2022-09-12T09:19:04.216Z,4.15
2022-09-12T09:21:46.862Z,3.00
2022-09-12T09:24:18.494Z,4.40
2022-09-12T09:26:56.565Z,2.45
2022-09-12T09:29:35.010Z,4.07
2022-09-12T09:32:09.649Z,8.27
2022-09-12T09:34:36.267Z,9.60
2022-09-12T09:37:20.918Z,2.90
2022-09-12T09:40:27.533Z,3.95
2022-09-12T09:43:09.199Z,3.60
2022-09-12T09:45:38.119Z,2.70
2022-09-12T09:48:10.621Z,5.50
2022-09-12T09:50:38.201Z,3.40
2022-09-12T09:53:09.323Z,3.10
2022-09-12T09:55:43.596Z,3.03
2022-09-12T09:58:10.221Z,2.73
2022-09-12T10:00:38.629Z,3.57
2022-09-12T10:03:13.987Z,3.27
2022-09-12T10:06:22.520Z,2.97
2022-09-12T10:08:50.382Z,4.80
2022-09-12T10:11:20.998Z,2.97
2022-09-12T10:13:51.475Z,2.97
2022-09-12T10:16:25.747Z,4.23
2022-09-12T10:18:53.915Z,3.00
2022-09-12T10:21:36.307Z,2.70
2022-09-12T10:24:20.458Z,2.30
2022-09-12T10:26:57.225Z,3.20
2022-09-12T10:29:33.774Z,5.97
2022-09-12T10:32:05.002Z,3.33
2022-09-12T10:34:37.852Z,3.83
2022-09-12T10:37:27.641Z,4.93
2022-09-12T10:39:57.878Z,2.33
2022-09-12T10:42:43.011Z,2.10
2022-09-12T10:45:29.859Z,3.73
2022-09-12T10:48:02.093Z,2.47
2022-09-12T10:50:42.296Z,3.97
2022-09-12T10:53:25.502Z,2.47
2022-09-12T10:56:07.922Z,2.50
2022-09-12T10:58:40.543Z,4.97
2022-09-12T11:01:36.430Z,9.37
2022-09-12T11:04:33.671Z,3.10
2022-09-12T11:07:37.055Z,2.57
2022-09-12T11:10:47.850Z,3.13
2022-09-12T11:13:14.470Z,2.80
2022-09-12T11:16:10.683Z,3.30
2022-09-12T11:18:56.141Z,3.10
2022-09-12T11:21:53.889Z,2.17
2022-09-12T11:24:35.548Z,2.60
2022-09-12T11:27:08.166Z,4.63
2022-09-12T11:29:54.987Z,2.23
2022-09-12T11:32:47.586Z,2.70
2022-09-12T11:35:29.770Z,4.80
2022-09-12T11:38:26.604Z,1.70
2022-09-12T11:41:01.340Z,3.33
2022-09-12T11:43:49.522Z,3.43
2022-09-12T11:46:34.639Z,5.10
2022-09-12T11:49:04.162Z,3.57
2022-09-12T11:51:41.211Z,5.70
2022-09-12T11:54:28.692Z,6.23
2022-09-12T11:57:39.889Z,2.70
2022-09-12T12:00:24.654Z,3.63
2022-09-12T12:03:06.640Z,3.33
2022-09-12T12:05:54.438Z,3.47
2022-09-12T12:08:23.419Z,2.87
2022-09-12T12:10:56.530Z,4.70
2022-09-12T12:13:33.914Z,4.20
2022-09-12T12:16:05.750Z,2.63
2022-09-12T12:18:35.773Z,2.57
2022-09-12T12:21:37.954Z,4.00
2022-09-12T12:24:07.645Z,4.70
2022-09-12T12:26:43.498Z,4.07
2022-09-12T12:29:22.212Z,3.80
2022-09-12T12:32:04.015Z,3.13
2022-09-12T12:34:41.810Z,2.13
2022-09-12T12:37:20.560Z,5.47
2022-09-12T12:40:01.414Z,1.80
2022-09-12T12:42:34.376Z,2.60
2022-09-12T12:45:24.269Z,2.13
2022-09-12T12:47:55.065Z,3.43
2022-09-12T12:50:32.100Z,5.03
2022-09-12T12:53:05.052Z,3.63
2022-09-12T12:55:45.561Z,2.90
2022-09-12T12:58:26.734Z,3.57
2022-09-12T13:01:07.903Z,2.77
2022-09-12T13:03:34.885Z,2.40
2022-09-12T13:06:05.500Z,4.73
2022-09-12T13:08:35.486Z,3.60
2022-09-12T13:11:02.188Z,3.57
2022-09-12T13:14:01.607Z,2.20
2022-09-12T13:16:37.756Z,2.30
2022-09-12T13:19:18.005Z,3.90
2022-09-12T13:22:07.724Z,2.47
2022-09-12T13:24:43.807Z,3.77
2022-09-12T13:27:22.954Z,4.20
2022-09-12T13:29:50.373Z,2.00
2022-09-12T13:32:18.425Z,2.90
2022-09-12T13:35:14.065Z,2.07
2022-09-12T13:37:51.415Z,2.67
2022-09-12T13:40:33.890Z,2.60
2022-09-12T13:43:17.754Z,4.37
2022-09-12T13:45:46.761Z,4.47
2022-09-12T13:48:18.236Z,5.93
2022-09-12T13:50:54.927Z,3.67
2022-09-12T13:53:25.946Z,1.87
2022-09-12T13:56:03.869Z,3.13
2022-09-12T13:58:33.315Z,4.93
2022-09-12T14:01:20.610Z,2.40
2022-09-12T14:04:12.930Z,4.07
2022-09-12T14:06:51.759Z,5.17
2022-09-12T14:09:38.588Z,2.43
2022-09-12T14:12:25.262Z,3.33
2022-09-12T14:14:53.068Z,3.50
2022-09-12T14:17:30.458Z,2.87
2022-09-12T14:20:03.965Z,3.93
2022-09-12T14:22:32.567Z,5.63
2022-09-12T14:25:00.182Z,4.07
2022-09-12T14:27:43.165Z,4.33
2022-09-12T14:30:42.066Z,5.20
2022-09-12T14:33:12.854Z,5.77
2022-09-12T14:35:43.525Z,4.73
2022-09-12T14:38:18.373Z,5.23
2022-09-12T14:40:48.752Z,3.57
2022-09-12T14:43:26.738Z,2.50
2022-09-12T14:46:10.446Z,2.67
2022-09-12T14:48:50.582Z,2.90
2022-09-12T14:51:25.106Z,3.30
2022-09-12T14:53:51.793Z,2.30
2022-09-12T14:56:24.320Z,2.13
2022-09-12T14:59:28.439Z,1.53
2022-09-12T15:02:16.515Z,6.23
2022-09-12T15:05:00.463Z,3.20
2022-09-12T15:08:04.814Z,4.83
2022-09-12T15:10:37.073Z,5.00
2022-09-12T15:13:09.683Z,5.13
2022-09-12T15:15:41.420Z,6.03
2022-09-12T15:18:13.734Z,1.53
2022-09-12T15:20:45.460Z,3.30
2022-09-12T15:23:20.779Z,4.23
2022-09-12T15:25:47.606Z,3.47
2022-09-12T15:28:20.035Z,3.40
2022-09-12T15:30:50.130Z,3.93
2022-09-12T15:33:22.856Z,3.20
2022-09-12T15:35:50.353Z,7.63
2022-09-12T15:38:17.186Z,2.60
2022-09-12T15:40:43.821Z,4.57
2022-09-12T15:43:13.853Z,3.07
2022-09-12T15:45:49.899Z,5.53
2022-09-12T15:48:16.477Z,3.30
2022-09-12T15:50:43.187Z,3.47
2022-09-12T15:53:18.576Z,3.17
2022-09-12T15:55:45.777Z,5.23
2022-09-12T15:58:13.097Z,4.47
2022-09-12T16:00:39.714Z,5.67
2022-09-12T16:03:07.043Z,3.07
2022-09-12T16:05:34.407Z,4.40
2022-09-12T16:08:01.226Z,4.23
2022-09-12T16:10:30.418Z,4.07
2022-09-12T16:12:57.893Z,4.40
2022-09-12T16:15:25.873Z,3.43
2022-09-12T16:17:52.870Z,3.67
2022-09-12T16:20:20.870Z,3.83
2022-09-12T16:22:47.829Z,3.23
2022-09-12T16:25:14.588Z,2.07
2022-09-12T16:27:41.807Z,5.00
2022-09-12T16:30:09.648Z,3.53
2022-09-12T16:32:36.522Z,6.87
2022-09-12T16:35:03.396Z,4.00
2022-09-12T16:37:31.582Z,3.20
2022-09-12T16:39:58.367Z,2.13
2022-09-12T16:42:25.003Z,3.10
2022-09-12T16:44:52.003Z,7.63
2022-09-12T16:47:18.638Z,3.53
2022-09-12T16:49:45.255Z,3.83
2022-09-12T16:52:14.251Z,2.80
2022-09-12T16:54:40.899Z,5.57
2022-09-12T16:57:07.485Z,6.57
2022-09-12T16:59:34.118Z,4.10
2022-09-12T17:02:00.777Z,5.30
2022-09-12T17:04:27.554Z,5.33
2022-09-12T17:06:54.507Z,3.10
2022-09-12T17:09:22.077Z,4.13
2022-09-12T17:11:50.247Z,5.97
2022-09-12T17:14:16.946Z,8.37
2022-09-12T17:16:50.887Z,5.33
2022-09-12T17:19:33.059Z,4.23
2022-09-12T17:21:59.935Z,5.47
2022-09-12T17:24:26.796Z,4.93
2022-09-12T17:26:53.772Z,2.90
2022-09-12T17:29:20.781Z,5.80
2022-09-12T17:31:47.658Z,13.57
2022-09-12T17:34:15.244Z,4.27
2022-09-12T17:36:44.598Z,5.77
2022-09-12T17:39:12.932Z,3.40
2022-09-12T17:41:41.857Z,5.17
2022-09-12T17:44:11.730Z,4.33
2022-09-12T17:46:38.789Z,5.53
2022-09-12T17:49:20.967Z,7.37
2022-09-12T17:51:48.659Z,4.87
2022-09-12T17:54:18.852Z,3.23
2022-09-12T17:56:49.909Z,4.13
2022-09-12T17:59:21.727Z,3.07
2022-09-12T18:02:07.052Z,3.73
2022-09-12T18:04:37.506Z,4.33
2022-09-12T18:07:04.366Z,8.30
2022-09-12T18:09:31.035Z,5.10
2022-09-12T18:11:58.524Z,5.83
2022-09-12T18:14:27.699Z,2.87
2022-09-12T18:16:57.116Z,5.27
2022-09-12T18:19:24.313Z,6.43
2022-09-12T18:21:51.049Z,5.00
2022-09-12T18:24:18.469Z,2.90
2022-09-12T18:26:45.390Z,3.57
2022-09-12T18:29:13.247Z,2.60
2022-09-12T18:31:39.897Z,3.70
2022-09-12T18:34:07.886Z,6.87
2022-09-12T18:36:34.506Z,5.03
2022-09-12T18:39:01.144Z,5.27
2022-09-12T18:41:29.038Z,4.47
2022-09-12T18:44:00.847Z,5.37
2022-09-12T18:46:29.695Z,4.43
2022-09-12T18:49:00.279Z,8.47
2022-09-12T18:51:33.682Z,5.70
2022-09-12T18:54:03.462Z,6.33
2022-09-12T18:56:35.083Z,5.10
2022-09-12T18:59:04.260Z,5.63
2022-09-12T19:01:37.761Z,5.40
2022-09-12T19:04:06.258Z,8.17
2022-09-12T19:06:36.511Z,5.03
2022-09-12T19:09:07.787Z,7.77
2022-09-12T19:11:39.558Z,7.43
2022-09-12T19:14:07.658Z,10.10
2022-09-12T19:16:34.834Z,5.53
2022-09-12T19:19:02.687Z,3.93
2022-09-12T19:21:31.140Z,5.47
2022-09-12T19:24:01.074Z,3.83
2022-09-12T19:26:27.929Z,4.33
2022-09-12T19:28:56.117Z,4.73
2022-09-12T19:31:24.408Z,5.53
2022-09-12T19:33:54.659Z,8.50
2022-09-12T19:36:43.692Z,5.43
2022-09-12T19:39:09.559Z,3.70
2022-09-12T19:41:36.520Z,6.77
2022-09-12T19:44:04.507Z,3.10
2022-09-12T19:46:31.361Z,5.73
2022-09-12T19:48:58.058Z,3.77
2022-09-12T19:51:24.711Z,5.93
2022-09-12T19:53:52.150Z,4.07
2022-09-12T19:56:19.266Z,2.77
2022-09-12T19:58:50.901Z,3.90
2022-09-12T20:01:25.023Z,4.80
2022-09-12T20:03:54.951Z,7.03
2022-09-12T20:06:21.782Z,7.40
2022-09-12T20:08:48.555Z,7.47
2022-09-12T20:11:17.943Z,3.80
2022-09-12T20:13:45.744Z,3.77
2022-09-12T20:16:33.548Z,6.43
2022-09-12T20:19:07.090Z,3.70
2022-09-12T20:21:36.114Z,4.47
2022-09-12T20:24:03.056Z,4.17
2022-09-12T20:26:30.189Z,4.90
2022-09-12T20:28:56.927Z,6.40
2022-09-12T20:31:24.519Z,2.77
2022-09-12T20:33:52.141Z,4.13
2022-09-12T20:36:20.872Z,4.07
2022-09-12T20:38:50.394Z,6.93
2022-09-12T20:41:17.849Z,6.40
2022-09-12T20:43:44.495Z,7.23
2022-09-12T20:46:11.528Z,5.13
2022-09-12T20:48:39.052Z,4.77
2022-09-12T20:51:06.581Z,2.73
2022-09-12T20:53:35.258Z,3.93
2022-09-12T20:56:03.182Z,3.17
2022-09-12T20:58:29.862Z,5.13
2022-09-12T21:00:56.940Z,3.20
2022-09-12T21:03:23.603Z,3.07
2022-09-12T21:05:50.187Z,5.00
2022-09-12T21:08:17.204Z,4.37
2022-09-12T21:10:44.570Z,4.90
2022-09-12T21:13:12.202Z,3.33
2022-09-12T21:15:40.207Z,6.20
2022-09-12T21:18:07.544Z,3.13
2022-09-12T21:20:34.504Z,4.03
2022-09-12T21:23:01.190Z,4.40
2022-09-12T21:25:29.130Z,4.53
2022-09-12T21:27:55.758Z,4.70
2022-09-12T21:30:22.465Z,4.03
2022-09-12T21:32:49.178Z,7.37
2022-09-12T21:35:16.040Z,7.20
2022-09-12T21:37:42.670Z,5.87
2022-09-12T21:40:09.622Z,3.83
2022-09-12T21:42:36.270Z,5.83
2022-09-12T21:45:02.989Z,3.67
2022-09-12T21:47:29.571Z,4.07
2022-09-12T21:49:56.197Z,4.93
2022-09-12T21:52:22.899Z,3.53
2022-09-12T21:54:49.482Z,4.10
2022-09-12T21:57:16.091Z,3.90
2022-09-12T21:59:42.822Z,4.63
2022-09-12T22:02:10.934Z,5.10
2022-09-12T22:04:37.630Z,4.47
2022-09-12T22:07:05.498Z,3.93
2022-09-12T22:09:32.901Z,3.57
2022-09-12T22:11:59.498Z,5.50
2022-09-12T22:14:26.248Z,4.67
2022-09-12T22:16:54.983Z,3.40
2022-09-12T22:19:24.513Z,5.83
2022-09-12T22:22:25.068Z,3.70
2022-09-12T22:25:01.141Z,3.50
2022-09-12T22:27:27.966Z,7.67
2022-09-12T22:29:57.026Z,3.80
2022-09-12T22:32:26.365Z,4.77
2022-09-12T22:34:53.081Z,3.27
2022-09-12T22:37:20.869Z,3.60
2022-09-12T22:39:50.555Z,4.97
2022-09-12T22:42:21.398Z,4.57
2022-09-12T22:44:48.007Z,4.53
2022-09-12T22:47:15.859Z,3.23
2022-09-12T22:49:42.495Z,2.70
2022-09-12T22:52:09.093Z,2.37
2022-09-12T22:54:38.580Z,3.53
2022-09-12T22:57:05.333Z,3.87
2022-09-12T22:59:31.930Z,2.57
2022-09-12T23:01:58.605Z,4.87
2022-09-12T23:04:27.990Z,4.93
2022-09-12T23:06:58.260Z,3.13
2022-09-12T23:09:24.970Z,2.57
2022-09-12T23:11:55.578Z,3.50
2022-09-12T23:14:22.166Z,5.07
2022-09-12T23:16:51.755Z,3.57
2022-09-12T23:19:18.430Z,3.33
2022-09-12T23:21:49.305Z,4.97
2022-09-12T23:24:18.381Z,6.83
2022-09-12T23:26:45.062Z,2.87
2022-09-12T23:29:14.725Z,3.13
2022-09-12T23:31:41.723Z,3.37
2022-09-12T23:34:11.144Z,6.07
2022-09-12T23:36:37.757Z,2.20
2022-09-12T23:39:07.204Z,5.33
2022-09-12T23:41:33.851Z,3.20
2022-09-12T23:44:05.325Z,5.93
2022-09-12T23:46:34.267Z,6.03
2022-09-12T23:49:00.868Z,4.73
2022-09-12T23:51:30.294Z,3.30
2022-09-12T23:53:57.387Z,5.63
2022-09-12T23:56:27.044Z,3.30
2022-09-12T23:58:53.719Z,2.90
